Dallas, PA (18612)

7:03 PM EST on February 11, 2016 (GMT -0500)
Captains Quarters Shavertown | | Change Station
CLOSE
Current Station
Personal Weather Station
Location: Shavertown, PA
Elevation: 1145 ft
Nearby Weather Stations

Elev 1145 ft 41.33 °N, 75.94 °W | Updated 14 minutes ago

Partly Cloudy
Partly Cloudy
12.7 °F
Feels Like 5 °F
N
4.7
Wind Variable Wind from SSW

Today
High -- | Low -- °F
--% Chance of Precip.
Yesterday
High -- | Low -- °F
Precip. -- in
Pressure 30.12 in
Visibility 10.0 miles
Clouds Few 5000 ft
Windchill 5 °F
Dew Point -1 °F
Humidity 54%
Rainfall 0.00 in
Snow Depth Not available.
7:04 AM 5:32 PM
Waxing Crescent, 15% visible
METAR KAVP 112354Z 30010G18KT 10SM FEW050 M09/M19 A3007 RMK AO2 SLP198 60000 T10941189 11067 21094 51038 $
Pressure 30.12 in
Visibility 10.0 miles
Clouds Few 5000 ft
Windchill 5 °F
Dew Point -1 °F
Humidity 54%
Rainfall 0.00 in
Snow Depth Not available.
7:04 AM 5:32 PM
Waxing Crescent, 15% visible
METAR KAVP 112354Z 30010G18KT 10SM FEW050 M09/M19 A3007 RMK AO2 SLP198 60000 T10941189 11067 21094 51038 $

10-Day Weather Forecast

Almanac

Astronomy

Feb. 11, 2016 Rise Set
Actual Time
Civil Twilight
Nautical Twilight
Astronomical Twilight
Moon
Length of Visible Light
Length of Day
Tomorrow will be .
, % of the Moon is Illuminated

Today's Extremes

State Highs State Lows

Community

WunderPhotos

Upload Photos

1,892,186 photos uploaded!

WunderBlog® & News

Nearby

Air Quality

  Air Quality AQ Index Pollutant
Not available.

Snow Depth

Station Depth Elevation

Earthquake Activity

City Distance Mag. Time & Date
Minimum magnitude displayed is 2.5.

Coastal Water Temperatures

Place Temperature

Stations

Nearby Weather Stations

Station Location Temp. Windchill Dew Point Humidity Wind Precip. Elev Updated Type
                   

Watches & Warnings

Wind Chill Watch
Issued: 3:42 PM EST Feb. 11, 2016 – National Weather Service

... Wind chill watch in effect from late Saturday afternoon
through Sunday afternoon...

The National Weather Service in Binghamton has issued a wind
chill watch... which is in effect from Saturday afternoon through
Sunday afternoon.

* Locations... northeast pennsyvlania and Sullivan County New York.

* Hazard types... bitterly cold wind chills.

* Timing... coldest Saturday night into Sunday.

* Wind chill... wind chills as low as 25 below.

* Winds... northwest 10 to 20 with gusts to 35 mph.

* Temperatures... falling to zero to 10 below Saturday night.


Precautionary/preparedness actions...

A wind chill watch means the there is the potential for a
combination of very cold air and strong winds to create
dangerously low wind chill values. Monitor the latest forecasts
and warnings for updates on this situation.



Mse